createdAt,value
2022-12-04T00:04:51.016Z,31.50
2022-12-04T00:09:54.274Z,31.00
2022-12-04T00:20:20.245Z,31.10
2022-12-04T00:25:23.053Z,29.10
2022-12-04T00:30:25.895Z,29.60
2022-12-04T00:35:28.785Z,31.10
2022-12-04T00:40:31.627Z,31.30
2022-12-04T00:45:34.697Z,29.50
2022-12-04T00:50:37.774Z,29.90
2022-12-04T00:55:42.693Z,30.40
2022-12-04T01:00:46.196Z,29.10
2022-12-04T01:05:49.124Z,28.10
2022-12-04T01:10:52.410Z,28.50
2022-12-04T01:15:55.341Z,29.10
2022-12-04T01:20:58.203Z,27.40
2022-12-04T01:26:01.284Z,28.00
2022-12-04T01:31:13.692Z,26.20
2022-12-04T01:36:21.073Z,26.60
2022-12-04T01:41:27.091Z,26.00
2022-12-04T01:46:30.065Z,24.80
2022-12-04T01:51:42.034Z,25.30
2022-12-04T01:57:07.862Z,25.50
2022-12-04T02:02:13.478Z,26.70
2022-12-04T02:07:18.503Z,26.60
2022-12-04T02:12:32.965Z,25.00
2022-12-04T02:18:12.804Z,26.20
2022-12-04T02:23:19.736Z,26.00
2022-12-04T02:28:53.823Z,25.30
2022-12-04T02:34:07.673Z,25.10
2022-12-04T02:39:23.233Z,25.90
2022-12-04T02:44:39.416Z,24.50
2022-12-04T02:49:46.618Z,24.60
2022-12-04T02:54:54.141Z,24.50
2022-12-04T02:59:57.493Z,25.50
2022-12-04T03:05:04.817Z,23.60
2022-12-04T03:10:40.673Z,24.00
2022-12-04T03:15:46.482Z,21.60
2022-12-04T03:20:57.282Z,23.40
2022-12-04T03:26:28.619Z,22.20
2022-12-04T03:31:56.794Z,20.90
2022-12-04T03:37:04.453Z,21.40
2022-12-04T03:42:16.504Z,23.40
2022-12-04T03:47:40.048Z,24.00
2022-12-04T03:53:04.725Z,21.80
2022-12-04T03:58:12.299Z,20.10
2022-12-04T04:03:22.854Z,20.40
2022-12-04T04:08:33.987Z,21.30
2022-12-04T04:14:23.968Z,19.20
2022-12-04T04:19:48.476Z,19.10
2022-12-04T04:24:59.769Z,20.90
2022-12-04T04:30:05.037Z,21.60
2022-12-04T04:35:22.390Z,20.70
2022-12-04T04:40:54.612Z,20.80
2022-12-04T04:46:08.574Z,22.90
2022-12-04T04:51:12.069Z,23.00
2022-12-04T04:56:15.023Z,21.40
2022-12-04T05:01:20.208Z,21.30
2022-12-04T05:06:23.973Z,22.70
2022-12-04T05:11:26.764Z,23.20
2022-12-04T05:16:29.740Z,22.70
2022-12-04T05:21:33.277Z,22.20
2022-12-04T05:26:36.069Z,24.00
2022-12-04T05:31:38.886Z,20.80
2022-12-04T05:36:43.048Z,22.00
2022-12-04T05:41:45.885Z,22.10
2022-12-04T05:46:49.846Z,22.50
2022-12-04T05:51:52.754Z,21.60
2022-12-04T05:56:55.622Z,21.00
2022-12-04T06:01:58.668Z,20.60
2022-12-04T06:07:01.582Z,21.50
2022-12-04T06:12:05.951Z,20.50
2022-12-04T06:17:08.747Z,20.40
2022-12-04T06:22:11.565Z,22.10
2022-12-04T06:27:29.705Z,23.00
2022-12-04T06:32:32.649Z,25.80
2022-12-04T06:37:35.478Z,22.80
2022-12-04T06:42:38.759Z,23.20
2022-12-04T06:47:41.861Z,24.00
2022-12-04T06:52:44.666Z,23.10
2022-12-04T06:57:48.646Z,21.50
2022-12-04T07:02:51.623Z,23.50
2022-12-04T07:07:54.657Z,21.40
2022-12-04T07:12:57.555Z,22.40
2022-12-04T07:18:00.493Z,20.70
2022-12-04T07:23:07.262Z,19.50
2022-12-04T07:28:11.616Z,19.70
2022-12-04T07:33:17.334Z,21.80
2022-12-04T07:38:20.336Z,19.50
2022-12-04T07:43:24.100Z,20.10
2022-12-04T07:48:33.039Z,20.70
2022-12-04T07:53:36.578Z,21.80
2022-12-04T07:58:39.949Z,20.20
2022-12-04T08:03:48.007Z,20.60
2022-12-04T08:08:51.882Z,20.30
2022-12-04T08:14:04.312Z,21.00
2022-12-04T08:19:09.044Z,18.80
2022-12-04T08:24:11.850Z,20.90
2022-12-04T08:29:16.348Z,21.70
2022-12-04T08:34:19.193Z,21.10
2022-12-04T08:39:23.037Z,20.20
2022-12-04T08:44:26.819Z,18.80
2022-12-04T08:49:30.468Z,20.50
2022-12-04T08:54:36.271Z,20.10
2022-12-04T08:59:39.465Z,17.60
2022-12-04T09:04:42.530Z,19.10
2022-12-04T09:09:55.253Z,20.20
2022-12-04T09:14:58.261Z,19.70
2022-12-04T09:20:01.670Z,19.40
2022-12-04T09:25:07.848Z,18.50
2022-12-04T09:30:11.823Z,19.80
2022-12-04T09:35:14.771Z,19.70
2022-12-04T09:40:35.198Z,18.20
2022-12-04T09:45:47.897Z,18.10
2022-12-04T09:50:52.413Z,20.10
2022-12-04T09:56:01.133Z,18.80
2022-12-04T10:06:28.303Z,18.60
2022-12-04T10:12:06.022Z,19.50
2022-12-04T10:17:32.436Z,19.50
2022-12-04T10:22:50.473Z,18.40
2022-12-04T10:28:12.367Z,17.10
2022-12-04T10:33:18.275Z,18.00
2022-12-04T10:38:26.093Z,18.50
2022-12-04T10:43:40.420Z,17.20
2022-12-04T10:48:44.211Z,18.00
2022-12-04T10:53:49.470Z,19.30
2022-12-04T10:59:16.014Z,17.90
2022-12-04T11:04:27.612Z,16.40
2022-12-04T11:09:30.475Z,16.00
2022-12-04T11:14:33.287Z,18.00
2022-12-04T11:19:36.539Z,17.20
2022-12-04T11:24:40.243Z,15.90
2022-12-04T11:29:43.462Z,15.40
2022-12-04T11:34:46.315Z,17.50
2022-12-04T11:39:51.488Z,18.00
2022-12-04T11:44:56.080Z,16.80
2022-12-04T11:50:34.623Z,18.90
2022-12-04T11:55:53.242Z,18.80
2022-12-04T12:01:22.210Z,20.30
2022-12-04T12:06:37.088Z,15.90
2022-12-04T12:11:55.675Z,15.30
2022-12-04T12:17:39.384Z,18.90
2022-12-04T12:22:53.738Z,17.20
2022-12-04T12:28:41.893Z,16.30
2022-12-04T12:34:34.567Z,15.10
2022-12-04T12:39:57.460Z,18.40
2022-12-04T12:45:21.845Z,15.90
2022-12-04T12:50:35.489Z,17.40
2022-12-04T12:55:54.402Z,15.60
2022-12-04T13:06:33.822Z,17.40
2022-12-04T13:11:38.032Z,18.30
2022-12-04T13:16:51.288Z,18.00
2022-12-04T13:22:02.124Z,19.60
2022-12-04T13:27:47.996Z,20.50
2022-12-04T13:33:22.903Z,16.20
2022-12-04T13:38:44.711Z,17.70
2022-12-04T13:43:52.117Z,18.80
2022-12-04T13:48:55.162Z,17.30
2022-12-04T13:54:28.265Z,16.80
2022-12-04T13:59:37.937Z,14.50
2022-12-04T14:04:47.050Z,16.20
2022-12-04T14:09:55.772Z,16.90
2022-12-04T14:20:25.871Z,16.20
2022-12-04T14:25:39.785Z,17.90
2022-12-04T14:30:42.739Z,18.00
2022-12-04T14:36:11.249Z,17.60
2022-12-04T14:41:14.514Z,16.10
2022-12-04T14:46:24.636Z,16.30
2022-12-04T14:51:36.136Z,16.00
2022-12-04T14:56:44.572Z,16.90
2022-12-04T15:02:11.078Z,17.90
2022-12-04T15:07:29.010Z,19.80
2022-12-04T15:12:35.008Z,20.80
2022-12-04T15:17:38.449Z,17.70
2022-12-04T15:22:41.365Z,17.80
2022-12-04T15:27:44.240Z,17.50
2022-12-04T15:32:49.406Z,18.40
2022-12-04T15:37:52.281Z,17.10
2022-12-04T15:43:07.063Z,16.40
2022-12-04T15:48:09.934Z,17.20
2022-12-04T15:53:20.035Z,17.40
2022-12-04T15:58:30.244Z,17.20
2022-12-04T16:03:41.606Z,16.00
2022-12-04T16:08:47.412Z,17.30
2022-12-04T16:14:08.250Z,17.80
2022-12-04T16:19:33.406Z,17.30
2022-12-04T16:24:36.311Z,16.50
2022-12-04T16:29:39.227Z,16.90
2022-12-04T16:34:42.076Z,18.30
2022-12-04T16:39:45.027Z,16.70
2022-12-04T16:44:48.144Z,15.50
2022-12-04T16:49:53.244Z,16.40
2022-12-04T16:54:58.491Z,14.90
2022-12-04T17:00:06.564Z,13.90
2022-12-04T17:05:19.299Z,13.20
2022-12-04T17:10:24.306Z,14.60
2022-12-04T17:15:27.917Z,13.90
2022-12-04T17:20:31.812Z,13.90
2022-12-04T17:25:35.413Z,14.10
2022-12-04T17:30:38.543Z,13.00
2022-12-04T17:35:43.485Z,10.50
2022-12-04T17:40:48.586Z,13.80
2022-12-04T17:45:52.208Z,13.60
2022-12-04T17:51:18.239Z,13.60
2022-12-04T17:56:24.242Z,13.30
2022-12-04T18:01:28.969Z,13.60
2022-12-04T18:06:34.456Z,13.60
2022-12-04T18:11:41.295Z,13.50
2022-12-04T18:16:47.088Z,13.20
2022-12-04T18:21:50.357Z,14.10
2022-12-04T18:26:53.606Z,16.80
2022-12-04T18:31:57.518Z,14.40
2022-12-04T18:37:00.352Z,13.00
2022-12-04T18:42:04.106Z,15.20
2022-12-04T18:47:07.574Z,14.20
2022-12-04T18:52:10.361Z,13.90
2022-12-04T18:57:13.557Z,13.30
2022-12-04T19:02:17.840Z,14.50
2022-12-04T19:07:22.612Z,16.00
2022-12-04T19:12:25.813Z,13.90
2022-12-04T19:17:31.016Z,12.90
2022-12-04T19:22:33.888Z,13.20
2022-12-04T19:27:39.045Z,13.50
2022-12-04T19:32:41.871Z,13.00
2022-12-04T19:37:52.385Z,13.50
2022-12-04T19:43:02.503Z,13.20
2022-12-04T19:48:05.802Z,14.60
2022-12-04T19:53:08.910Z,13.70
2022-12-04T19:58:11.848Z,12.60
2022-12-04T20:03:14.697Z,14.00
2022-12-04T20:08:17.691Z,14.50
2022-12-04T20:13:24.244Z,13.70
2022-12-04T20:18:27.211Z,13.40
2022-12-04T20:23:30.108Z,13.50
2022-12-04T20:28:34.286Z,14.40
2022-12-04T20:33:37.137Z,13.90
2022-12-04T20:38:40.188Z,14.20
2022-12-04T20:43:43.729Z,13.60
2022-12-04T20:48:49.830Z,15.80
2022-12-04T20:53:55.533Z,13.70
2022-12-04T20:59:00.507Z,12.80
2022-12-04T21:04:04.189Z,14.20
2022-12-04T21:09:13.052Z,14.30
2022-12-04T21:20:05.843Z,12.40
2022-12-04T21:25:10.598Z,12.40
2022-12-04T21:30:15.443Z,13.70
2022-12-04T21:35:18.245Z,12.30
2022-12-04T21:40:21.397Z,12.20
2022-12-04T21:45:24.425Z,14.30
2022-12-04T21:50:28.185Z,11.90
2022-12-04T21:55:30.963Z,10.90
2022-12-04T22:00:35.940Z,10.80
2022-12-04T22:05:39.542Z,11.80
2022-12-04T22:10:45.305Z,11.30
2022-12-04T22:15:48.629Z,10.90
2022-12-04T22:20:51.667Z,11.00
2022-12-04T22:25:54.892Z,11.40
2022-12-04T22:31:06.784Z,12.60
2022-12-04T22:36:13.302Z,11.10
2022-12-04T22:41:20.981Z,10.30
2022-12-04T22:46:25.467Z,11.20
2022-12-04T22:51:28.732Z,11.60
2022-12-04T22:56:32.095Z,10.50
2022-12-04T23:01:34.933Z,10.20
2022-12-04T23:06:38.121Z,11.40
2022-12-04T23:11:41.215Z,12.30
2022-12-04T23:16:44.834Z,12.10
2022-12-04T23:21:56.608Z,12.10
2022-12-04T23:27:02.477Z,12.80
2022-12-04T23:32:05.724Z,12.90
2022-12-04T23:37:09.017Z,11.60
2022-12-04T23:42:11.976Z,10.30
2022-12-04T23:47:14.915Z,13.10
2022-12-04T23:52:19.826Z,13.40
2022-12-04T23:57:22.647Z,11.60
